sensor_id;sensor_type;location;lat;lon;timestamp;temperature;humidity
68011;DHT22;54794;48.348;7.878;2022-11-13T00:01:17;10.40;73.10
68011;DHT22;54794;48.348;7.878;2022-11-13T00:03:46;10.40;73.10
68011;DHT22;54794;48.348;7.878;2022-11-13T00:06:15;10.40;73.20
68011;DHT22;54794;48.348;7.878;2022-11-13T00:08:42;10.40;73.30
68011;DHT22;54794;48.348;7.878;2022-11-13T00:11:15;10.40;73.30
68011;DHT22;54794;48.348;7.878;2022-11-13T00:13:45;10.40;73.40
68011;DHT22;54794;48.348;7.878;2022-11-13T00:16:17;10.30;73.40
68011;DHT22;54794;48.348;7.878;2022-11-13T00:18:46;10.40;73.50
68011;DHT22;54794;48.348;7.878;2022-11-13T00:21:19;10.40;73.30
68011;DHT22;54794;48.348;7.878;2022-11-13T00:23:48;10.40;73.30
68011;DHT22;54794;48.348;7.878;2022-11-13T00:26:20;10.40;73.30
68011;DHT22;54794;48.348;7.878;2022-11-13T00:28:56;10.30;73.20
68011;DHT22;54794;48.348;7.878;2022-11-13T00:31:25;10.40;73.30
68011;DHT22;54794;48.348;7.878;2022-11-13T00:33:53;10.30;73.20
68011;DHT22;54794;48.348;7.878;2022-11-13T00:36:40;10.30;73.20
68011;DHT22;54794;48.348;7.878;2022-11-13T00:39:08;10.40;73.30
68011;DHT22;54794;48.348;7.878;2022-11-13T00:41:35;10.30;73.20
68011;DHT22;54794;48.348;7.878;2022-11-13T00:44:03;10.30;73.30
68011;DHT22;54794;48.348;7.878;2022-11-13T00:46:30;10.30;73.30
68011;DHT22;54794;48.348;7.878;2022-11-13T00:48:57;10.40;73.30
68011;DHT22;54794;48.348;7.878;2022-11-13T00:51:24;10.30;73.20
68011;DHT22;54794;48.348;7.878;2022-11-13T00:53:50;10.30;73.20
68011;DHT22;54794;48.348;7.878;2022-11-13T00:56:17;10.30;73.30
68011;DHT22;54794;48.348;7.878;2022-11-13T00:58:44;10.30;73.30
68011;DHT22;54794;48.348;7.878;2022-11-13T01:01:17;10.30;73.40
68011;DHT22;54794;48.348;7.878;2022-11-13T01:03:47;10.30;73.40
68011;DHT22;54794;48.348;7.878;2022-11-13T01:06:21;10.30;73.30
68011;DHT22;54794;48.348;7.878;2022-11-13T01:08:53;10.30;73.30
68011;DHT22;54794;48.348;7.878;2022-11-13T01:11:24;10.30;73.20
68011;DHT22;54794;48.348;7.878;2022-11-13T01:13:52;10.30;73.20
68011;DHT22;54794;48.348;7.878;2022-11-13T01:16:21;10.30;73.20
68011;DHT22;54794;48.348;7.878;2022-11-13T01:18:52;10.20;73.20
68011;DHT22;54794;48.348;7.878;2022-11-13T01:21:23;10.30;73.10
68011;DHT22;54794;48.348;7.878;2022-11-13T01:23:52;10.20;73.10
68011;DHT22;54794;48.348;7.878;2022-11-13T01:26:22;10.20;73.20
68011;DHT22;54794;48.348;7.878;2022-11-13T01:28:54;10.20;73.20
68011;DHT22;54794;48.348;7.878;2022-11-13T01:31:26;10.20;73.20
68011;DHT22;54794;48.348;7.878;2022-11-13T01:33:55;10.20;73.30
68011;DHT22;54794;48.348;7.878;2022-11-13T01:36:25;10.20;73.30
68011;DHT22;54794;48.348;7.878;2022-11-13T01:38:53;10.30;73.40
68011;DHT22;54794;48.348;7.878;2022-11-13T01:41:25;10.20;73.30
68011;DHT22;54794;48.348;7.878;2022-11-13T01:43:55;10.20;73.30
68011;DHT22;54794;48.348;7.878;2022-11-13T01:46:32;10.10;73.30
68011;DHT22;54794;48.348;7.878;2022-11-13T01:49:17;10.20;73.30
68011;DHT22;54794;48.348;7.878;2022-11-13T01:51:59;10.10;73.30
68011;DHT22;54794;48.348;7.878;2022-11-13T01:54:32;10.10;73.30
68011;DHT22;54794;48.348;7.878;2022-11-13T01:57:05;10.20;73.30
68011;DHT22;54794;48.348;7.878;2022-11-13T01:59:39;10.20;73.30
68011;DHT22;54794;48.348;7.878;2022-11-13T02:02:09;10.10;73.30
68011;DHT22;54794;48.348;7.878;2022-11-13T02:04:36;10.10;73.30
68011;DHT22;54794;48.348;7.878;2022-11-13T02:07:14;10.10;73.30
68011;DHT22;54794;48.348;7.878;2022-11-13T02:09:46;10.10;73.30
68011;DHT22;54794;48.348;7.878;2022-11-13T02:12:20;10.10;73.30
68011;DHT22;54794;48.348;7.878;2022-11-13T02:14:53;10.10;73.30
68011;DHT22;54794;48.348;7.878;2022-11-13T02:17:27;10.10;73.30
68011;DHT22;54794;48.348;7.878;2022-11-13T02:20:00;10.10;73.30
68011;DHT22;54794;48.348;7.878;2022-11-13T02:25:09;10.10;73.30
68011;DHT22;54794;48.348;7.878;2022-11-13T02:27:45;10.10;73.20
68011;DHT22;54794;48.348;7.878;2022-11-13T02:32:54;10.10;73.30
68011;DHT22;54794;48.348;7.878;2022-11-13T02:35:40;10.10;73.30
68011;DHT22;54794;48.348;7.878;2022-11-13T02:38:07;10.10;73.30
68011;DHT22;54794;48.348;7.878;2022-11-13T02:40:34;10.10;73.30
68011;DHT22;54794;48.348;7.878;2022-11-13T02:43:01;10.10;73.30
68011;DHT22;54794;48.348;7.878;2022-11-13T02:45:27;10.10;73.30
68011;DHT22;54794;48.348;7.878;2022-11-13T02:47:54;10.10;73.40
68011;DHT22;54794;48.348;7.878;2022-11-13T02:50:21;10.10;73.40
68011;DHT22;54794;48.348;7.878;2022-11-13T02:52:48;10.00;73.40
68011;DHT22;54794;48.348;7.878;2022-11-13T02:55:15;10.10;73.40
68011;DHT22;54794;48.348;7.878;2022-11-13T02:57:42;10.00;73.30
68011;DHT22;54794;48.348;7.878;2022-11-13T03:00:09;10.10;73.40
68011;DHT22;54794;48.348;7.878;2022-11-13T03:02:40;10.10;73.40
68011;DHT22;54794;48.348;7.878;2022-11-13T03:05:07;10.10;73.30
68011;DHT22;54794;48.348;7.878;2022-11-13T03:07:39;10.00;73.30
68011;DHT22;54794;48.348;7.878;2022-11-13T03:10:08;10.10;73.40
68011;DHT22;54794;48.348;7.878;2022-11-13T03:12:36;10.00;73.40
68011;DHT22;54794;48.348;7.878;2022-11-13T03:15:05;10.00;73.30
68011;DHT22;54794;48.348;7.878;2022-11-13T03:17:33;10.10;73.40
68011;DHT22;54794;48.348;7.878;2022-11-13T03:20:00;10.10;73.40
68011;DHT22;54794;48.348;7.878;2022-11-13T03:22:27;10.00;73.40
68011;DHT22;54794;48.348;7.878;2022-11-13T03:24:54;10.00;73.20
68011;DHT22;54794;48.348;7.878;2022-11-13T03:27:21;10.00;73.20
68011;DHT22;54794;48.348;7.878;2022-11-13T03:29:48;10.00;73.20
68011;DHT22;54794;48.348;7.878;2022-11-13T03:32:15;10.00;73.20
68011;DHT22;54794;48.348;7.878;2022-11-13T03:34:42;10.00;73.30
68011;DHT22;54794;48.348;7.878;2022-11-13T03:37:08;10.00;73.40
68011;DHT22;54794;48.348;7.878;2022-11-13T03:39:35;10.00;73.40
68011;DHT22;54794;48.348;7.878;2022-11-13T03:42:02;10.00;73.40
68011;DHT22;54794;48.348;7.878;2022-11-13T03:44:29;10.00;73.50
68011;DHT22;54794;48.348;7.878;2022-11-13T03:46:56;10.00;73.40
68011;DHT22;54794;48.348;7.878;2022-11-13T03:49:23;10.00;73.90
68011;DHT22;54794;48.348;7.878;2022-11-13T03:51:49;10.10;73.40
68011;DHT22;54794;48.348;7.878;2022-11-13T03:54:16;10.00;73.30
68011;DHT22;54794;48.348;7.878;2022-11-13T03:56:43;10.00;73.20
68011;DHT22;54794;48.348;7.878;2022-11-13T03:59:10;10.00;73.30
68011;DHT22;54794;48.348;7.878;2022-11-13T04:01:37;10.00;73.40
68011;DHT22;54794;48.348;7.878;2022-11-13T04:04:04;10.00;73.40
68011;DHT22;54794;48.348;7.878;2022-11-13T04:06:31;10.00;73.40
68011;DHT22;54794;48.348;7.878;2022-11-13T04:08:57;10.00;73.40
68011;DHT22;54794;48.348;7.878;2022-11-13T04:11:24;10.00;73.40
68011;DHT22;54794;48.348;7.878;2022-11-13T04:13:51;10.10;73.50
68011;DHT22;54794;48.348;7.878;2022-11-13T04:16:18;10.00;73.40
68011;DHT22;54794;48.348;7.878;2022-11-13T04:18:45;10.00;73.40
68011;DHT22;54794;48.348;7.878;2022-11-13T04:21:11;10.00;73.40
68011;DHT22;54794;48.348;7.878;2022-11-13T04:23:38;10.10;73.50
68011;DHT22;54794;48.348;7.878;2022-11-13T04:26:05;10.00;73.30
68011;DHT22;54794;48.348;7.878;2022-11-13T04:28:32;10.00;73.30
68011;DHT22;54794;48.348;7.878;2022-11-13T04:30:59;10.00;73.40
68011;DHT22;54794;48.348;7.878;2022-11-13T04:33:25;10.00;73.40
68011;DHT22;54794;48.348;7.878;2022-11-13T04:35:52;10.00;73.80
68011;DHT22;54794;48.348;7.878;2022-11-13T04:38:19;10.10;73.40
68011;DHT22;54794;48.348;7.878;2022-11-13T04:40:49;10.10;73.30
68011;DHT22;54794;48.348;7.878;2022-11-13T04:43:36;10.00;73.20
68011;DHT22;54794;48.348;7.878;2022-11-13T04:46:03;10.00;73.80
68011;DHT22;54794;48.348;7.878;2022-11-13T04:48:30;10.00;73.20
68011;DHT22;54794;48.348;7.878;2022-11-13T04:50:57;10.00;73.20
68011;DHT22;54794;48.348;7.878;2022-11-13T04:53:24;9.90;73.20
68011;DHT22;54794;48.348;7.878;2022-11-13T04:55:54;10.00;73.30
68011;DHT22;54794;48.348;7.878;2022-11-13T04:58:20;9.90;73.30
68011;DHT22;54794;48.348;7.878;2022-11-13T05:00:47;9.90;73.30
68011;DHT22;54794;48.348;7.878;2022-11-13T05:03:14;10.00;73.40
68011;DHT22;54794;48.348;7.878;2022-11-13T05:05:41;9.90;73.40
68011;DHT22;54794;48.348;7.878;2022-11-13T05:08:08;10.00;73.40
68011;DHT22;54794;48.348;7.878;2022-11-13T05:10:35;9.90;73.40
68011;DHT22;54794;48.348;7.878;2022-11-13T05:13:02;9.90;73.40
68011;DHT22;54794;48.348;7.878;2022-11-13T05:15:29;10.00;73.50
68011;DHT22;54794;48.348;7.878;2022-11-13T05:17:56;9.90;73.40
68011;DHT22;54794;48.348;7.878;2022-11-13T05:20:23;9.90;73.30
68011;DHT22;54794;48.348;7.878;2022-11-13T05:22:50;10.00;73.30
68011;DHT22;54794;48.348;7.878;2022-11-13T05:25:17;9.90;73.20
68011;DHT22;54794;48.348;7.878;2022-11-13T05:27:43;10.00;73.30
68011;DHT22;54794;48.348;7.878;2022-11-13T05:30:10;9.90;73.30
68011;DHT22;54794;48.348;7.878;2022-11-13T05:32:37;9.90;73.40
68011;DHT22;54794;48.348;7.878;2022-11-13T05:35:04;9.90;73.50
68011;DHT22;54794;48.348;7.878;2022-11-13T05:37:31;9.90;73.50
68011;DHT22;54794;48.348;7.878;2022-11-13T05:39:58;10.00;73.50
68011;DHT22;54794;48.348;7.878;2022-11-13T05:42:25;9.90;73.50
68011;DHT22;54794;48.348;7.878;2022-11-13T05:44:51;10.00;73.50
68011;DHT22;54794;48.348;7.878;2022-11-13T05:47:18;10.00;73.50
68011;DHT22;54794;48.348;7.878;2022-11-13T05:49:45;9.90;73.50
68011;DHT22;54794;48.348;7.878;2022-11-13T05:52:12;10.00;73.40
68011;DHT22;54794;48.348;7.878;2022-11-13T05:54:39;10.00;73.50
68011;DHT22;54794;48.348;7.878;2022-11-13T05:57:06;9.90;73.40
68011;DHT22;54794;48.348;7.878;2022-11-13T05:59:32;9.90;73.40
68011;DHT22;54794;48.348;7.878;2022-11-13T06:01:59;9.90;73.40
68011;DHT22;54794;48.348;7.878;2022-11-13T06:04:26;9.90;73.50
68011;DHT22;54794;48.348;7.878;2022-11-13T06:06:53;10.00;73.50
68011;DHT22;54794;48.348;7.878;2022-11-13T06:09:20;9.90;73.40
68011;DHT22;54794;48.348;7.878;2022-11-13T06:11:47;10.00;73.50
68011;DHT22;54794;48.348;7.878;2022-11-13T06:14:14;10.00;73.50
68011;DHT22;54794;48.348;7.878;2022-11-13T06:16:41;10.00;73.50
68011;DHT22;54794;48.348;7.878;2022-11-13T06:19:09;10.00;73.50
68011;DHT22;54794;48.348;7.878;2022-11-13T06:21:38;10.00;73.50
68011;DHT22;54794;48.348;7.878;2022-11-13T06:24:07;10.00;73.50
68011;DHT22;54794;48.348;7.878;2022-11-13T06:26:36;10.00;73.50
68011;DHT22;54794;48.348;7.878;2022-11-13T06:29:05;10.00;73.50
68011;DHT22;54794;48.348;7.878;2022-11-13T06:31:35;10.00;73.50
68011;DHT22;54794;48.348;7.878;2022-11-13T06:34:03;10.00;73.60
68011;DHT22;54794;48.348;7.878;2022-11-13T06:36:33;10.00;73.50
68011;DHT22;54794;48.348;7.878;2022-11-13T06:39:03;10.00;73.50
68011;DHT22;54794;48.348;7.878;2022-11-13T06:41:31;10.00;73.50
68011;DHT22;54794;48.348;7.878;2022-11-13T06:43:59;10.00;73.60
68011;DHT22;54794;48.348;7.878;2022-11-13T06:46:29;10.00;73.60
68011;DHT22;54794;48.348;7.878;2022-11-13T06:48:56;10.00;73.60
68011;DHT22;54794;48.348;7.878;2022-11-13T06:51:26;10.10;73.80
68011;DHT22;54794;48.348;7.878;2022-11-13T06:53:55;10.00;73.50
68011;DHT22;54794;48.348;7.878;2022-11-13T06:56:22;10.00;73.50
68011;DHT22;54794;48.348;7.878;2022-11-13T06:58:50;10.00;73.50
68011;DHT22;54794;48.348;7.878;2022-11-13T07:01:19;10.10;73.60
68011;DHT22;54794;48.348;7.878;2022-11-13T07:03:48;10.10;73.50
68011;DHT22;54794;48.348;7.878;2022-11-13T07:06:24;10.00;73.40
68011;DHT22;54794;48.348;7.878;2022-11-13T07:08:51;10.00;73.50
68011;DHT22;54794;48.348;7.878;2022-11-13T07:11:21;10.00;73.50
68011;DHT22;54794;48.348;7.878;2022-11-13T07:13:49;10.00;73.50
68011;DHT22;54794;48.348;7.878;2022-11-13T07:16:17;10.00;74.10
68011;DHT22;54794;48.348;7.878;2022-11-13T07:18:51;10.00;73.60
68011;DHT22;54794;48.348;7.878;2022-11-13T07:21:20;10.10;73.60
68011;DHT22;54794;48.348;7.878;2022-11-13T07:23:48;10.00;73.50
68011;DHT22;54794;48.348;7.878;2022-11-13T07:26:17;10.10;73.70
68011;DHT22;54794;48.348;7.878;2022-11-13T07:28:44;10.00;73.60
68011;DHT22;54794;48.348;7.878;2022-11-13T07:31:13;10.10;73.60
68011;DHT22;54794;48.348;7.878;2022-11-13T07:33:42;10.00;73.50
68011;DHT22;54794;48.348;7.878;2022-11-13T07:36:09;10.00;73.50
68011;DHT22;54794;48.348;7.878;2022-11-13T07:38:36;10.00;73.50
68011;DHT22;54794;48.348;7.878;2022-11-13T07:41:03;10.00;73.40
68011;DHT22;54794;48.348;7.878;2022-11-13T07:43:30;10.00;73.40
68011;DHT22;54794;48.348;7.878;2022-11-13T07:45:58;10.00;73.50
68011;DHT22;54794;48.348;7.878;2022-11-13T07:48:26;10.00;73.60
68011;DHT22;54794;48.348;7.878;2022-11-13T07:50:54;10.10;73.70
68011;DHT22;54794;48.348;7.878;2022-11-13T07:53:24;10.00;73.50
68011;DHT22;54794;48.348;7.878;2022-11-13T07:55:51;10.00;73.40
68011;DHT22;54794;48.348;7.878;2022-11-13T07:58:18;10.00;73.50
68011;DHT22;54794;48.348;7.878;2022-11-13T08:00:45;10.00;73.40
68011;DHT22;54794;48.348;7.878;2022-11-13T08:03:14;10.00;73.90
68011;DHT22;54794;48.348;7.878;2022-11-13T08:05:42;10.00;73.40
68011;DHT22;54794;48.348;7.878;2022-11-13T08:08:13;10.00;73.50
68011;DHT22;54794;48.348;7.878;2022-11-13T08:10:40;10.00;73.60
68011;DHT22;54794;48.348;7.878;2022-11-13T08:13:09;10.00;73.60
68011;DHT22;54794;48.348;7.878;2022-11-13T08:15:36;10.10;73.60
68011;DHT22;54794;48.348;7.878;2022-11-13T08:18:04;10.10;73.40
68011;DHT22;54794;48.348;7.878;2022-11-13T08:20:32;10.10;73.30
68011;DHT22;54794;48.348;7.878;2022-11-13T08:23:00;10.00;73.20
68011;DHT22;54794;48.348;7.878;2022-11-13T08:25:29;10.00;73.30
68011;DHT22;54794;48.348;7.878;2022-11-13T08:27:58;10.00;73.40
68011;DHT22;54794;48.348;7.878;2022-11-13T08:30:26;10.00;73.50
68011;DHT22;54794;48.348;7.878;2022-11-13T08:32:54;10.00;73.60
68011;DHT22;54794;48.348;7.878;2022-11-13T08:35:21;10.00;73.60
68011;DHT22;54794;48.348;7.878;2022-11-13T08:38:04;10.00;73.60
68011;DHT22;54794;48.348;7.878;2022-11-13T08:40:33;10.00;73.60
68011;DHT22;54794;48.348;7.878;2022-11-13T08:43:02;10.10;73.60
68011;DHT22;54794;48.348;7.878;2022-11-13T08:45:30;10.10;73.60
68011;DHT22;54794;48.348;7.878;2022-11-13T08:48:01;10.10;73.60
68011;DHT22;54794;48.348;7.878;2022-11-13T08:50:30;10.10;73.60
68011;DHT22;54794;48.348;7.878;2022-11-13T08:52:59;10.10;73.60
68011;DHT22;54794;48.348;7.878;2022-11-13T08:55:27;10.20;73.60
68011;DHT22;54794;48.348;7.878;2022-11-13T08:57:57;10.10;73.60
68011;DHT22;54794;48.348;7.878;2022-11-13T09:00:26;10.20;73.70
68011;DHT22;54794;48.348;7.878;2022-11-13T09:02:55;10.10;73.60
68011;DHT22;54794;48.348;7.878;2022-11-13T09:05:24;10.20;73.60
68011;DHT22;54794;48.348;7.878;2022-11-13T09:07:58;10.20;73.60
68011;DHT22;54794;48.348;7.878;2022-11-13T09:10:27;10.20;73.50
68011;DHT22;54794;48.348;7.878;2022-11-13T09:12:58;10.20;73.50
68011;DHT22;54794;48.348;7.878;2022-11-13T09:15:30;10.20;73.60
68011;DHT22;54794;48.348;7.878;2022-11-13T09:17:59;10.20;73.60
68011;DHT22;54794;48.348;7.878;2022-11-13T09:20:29;10.20;73.60
68011;DHT22;54794;48.348;7.878;2022-11-13T09:23:03;10.20;73.50
68011;DHT22;54794;48.348;7.878;2022-11-13T09:25:34;10.30;73.60
68011;DHT22;54794;48.348;7.878;2022-11-13T09:28:04;10.30;73.70
68011;DHT22;54794;48.348;7.878;2022-11-13T09:30:32;10.30;73.70
68011;DHT22;54794;48.348;7.878;2022-11-13T09:33:00;10.30;73.80
68011;DHT22;54794;48.348;7.878;2022-11-13T09:35:28;10.30;73.80
68011;DHT22;54794;48.348;7.878;2022-11-13T09:38:07;10.30;73.80
68011;DHT22;54794;48.348;7.878;2022-11-13T09:40:54;10.30;73.70
68011;DHT22;54794;48.348;7.878;2022-11-13T09:43:32;10.40;73.70
68011;DHT22;54794;48.348;7.878;2022-11-13T09:46:23;10.40;73.60
68011;DHT22;54794;48.348;7.878;2022-11-13T09:52:08;10.50;73.50
68011;DHT22;54794;48.348;7.878;2022-11-13T09:54:58;10.40;73.40
68011;DHT22;54794;48.348;7.878;2022-11-13T09:57:52;10.40;73.40
68011;DHT22;54794;48.348;7.878;2022-11-13T10:00:33;10.40;73.50
68011;DHT22;54794;48.348;7.878;2022-11-13T10:03:34;10.40;73.50
68011;DHT22;54794;48.348;7.878;2022-11-13T10:09:30;10.40;73.50
68011;DHT22;54794;48.348;7.878;2022-11-13T10:12:02;10.40;73.60
68011;DHT22;54794;48.348;7.878;2022-11-13T10:14:39;10.40;73.50
68011;DHT22;54794;48.348;7.878;2022-11-13T10:17:27;10.40;73.50
68011;DHT22;54794;48.348;7.878;2022-11-13T10:20:02;10.40;73.60
68011;DHT22;54794;48.348;7.878;2022-11-13T10:22:51;10.40;73.50
68011;DHT22;54794;48.348;7.878;2022-11-13T10:25:25;10.40;73.50
68011;DHT22;54794;48.348;7.878;2022-11-13T10:27:58;10.40;73.50
68011;DHT22;54794;48.348;7.878;2022-11-13T10:30:47;10.40;73.50
68011;DHT22;54794;48.348;7.878;2022-11-13T10:33:19;10.30;73.40
68011;DHT22;54794;48.348;7.878;2022-11-13T10:35:57;10.40;73.60
68011;DHT22;54794;48.348;7.878;2022-11-13T10:38:38;10.40;73.60
68011;DHT22;54794;48.348;7.878;2022-11-13T10:41:15;10.40;73.60
68011;DHT22;54794;48.348;7.878;2022-11-13T10:43:55;10.40;73.70
68011;DHT22;54794;48.348;7.878;2022-11-13T10:46:30;10.40;73.60
68011;DHT22;54794;48.348;7.878;2022-11-13T10:49:15;10.40;73.60
68011;DHT22;54794;48.348;7.878;2022-11-13T10:51:57;10.40;73.60
68011;DHT22;54794;48.348;7.878;2022-11-13T10:54:29;10.40;73.50
68011;DHT22;54794;48.348;7.878;2022-11-13T10:57:05;10.30;73.40
68011;DHT22;54794;48.348;7.878;2022-11-13T10:59:44;10.30;73.40
68011;DHT22;54794;48.348;7.878;2022-11-13T11:02:18;10.30;73.40
68011;DHT22;54794;48.348;7.878;2022-11-13T11:05:00;10.30;73.40
68011;DHT22;54794;48.348;7.878;2022-11-13T11:07:39;10.30;73.50
68011;DHT22;54794;48.348;7.878;2022-11-13T11:10:31;10.30;73.40
68011;DHT22;54794;48.348;7.878;2022-11-13T11:13:11;10.30;73.20
68011;DHT22;54794;48.348;7.878;2022-11-13T11:15:55;10.20;73.30
68011;DHT22;54794;48.348;7.878;2022-11-13T11:18:29;10.20;73.30
68011;DHT22;54794;48.348;7.878;2022-11-13T11:21:20;10.20;73.30
68011;DHT22;54794;48.348;7.878;2022-11-13T11:24:17;10.10;73.30
68011;DHT22;54794;48.348;7.878;2022-11-13T11:34:46;10.10;73.60
68011;DHT22;54794;48.348;7.878;2022-11-13T11:37:10;10.10;73.70
68011;DHT22;54794;48.348;7.878;2022-11-13T11:39:46;10.10;73.70
68011;DHT22;54794;48.348;7.878;2022-11-13T11:42:40;10.10;73.70
68011;DHT22;54794;48.348;7.878;2022-11-13T11:45:28;10.00;73.90
68011;DHT22;54794;48.348;7.878;2022-11-13T11:48:16;10.10;73.90
68011;DHT22;54794;48.348;7.878;2022-11-13T11:51:11;10.20;73.70
68011;DHT22;54794;48.348;7.878;2022-11-13T12:00:23;10.20;74.00
68011;DHT22;54794;48.348;7.878;2022-11-13T12:12:37;10.20;73.50
68011;DHT22;54794;48.348;7.878;2022-11-13T12:15:23;10.20;73.50
68011;DHT22;54794;48.348;7.878;2022-11-13T12:18:26;10.20;73.40
68011;DHT22;54794;48.348;7.878;2022-11-13T12:21:21;10.20;73.60
68011;DHT22;54794;48.348;7.878;2022-11-13T12:30:21;10.20;73.80
68011;DHT22;54794;48.348;7.878;2022-11-13T12:35:58;10.30;73.80
68011;DHT22;54794;48.348;7.878;2022-11-13T12:44:28;10.30;73.50
68011;DHT22;54794;48.348;7.878;2022-11-13T12:46:59;10.30;73.50
68011;DHT22;54794;48.348;7.878;2022-11-13T12:49:33;10.30;73.50
68011;DHT22;54794;48.348;7.878;2022-11-13T12:54:41;10.30;73.50
68011;DHT22;54794;48.348;7.878;2022-11-13T12:59:50;10.30;73.40
68011;DHT22;54794;48.348;7.878;2022-11-13T13:02:30;10.20;73.80
68011;DHT22;54794;48.348;7.878;2022-11-13T13:05:27;10.20;73.30
68011;DHT22;54794;48.348;7.878;2022-11-13T13:11:24;10.20;73.40
68011;DHT22;54794;48.348;7.878;2022-11-13T13:19:41;10.20;73.40
68011;DHT22;54794;48.348;7.878;2022-11-13T13:22:24;10.20;73.50
68011;DHT22;54794;48.348;7.878;2022-11-13T13:25:05;10.20;73.60
68011;DHT22;54794;48.348;7.878;2022-11-13T13:30:47;10.20;73.60
68011;DHT22;54794;48.348;7.878;2022-11-13T13:33:55;10.20;73.50
68011;DHT22;54794;48.348;7.878;2022-11-13T13:49:02;10.20;73.50
68011;DHT22;54794;48.348;7.878;2022-11-13T13:51:44;10.20;74.00
68011;DHT22;54794;48.348;7.878;2022-11-13T13:54:22;10.20;73.50
68011;DHT22;54794;48.348;7.878;2022-11-13T13:56:53;10.20;74.00
68011;DHT22;54794;48.348;7.878;2022-11-13T13:59:32;10.30;73.70
68011;DHT22;54794;48.348;7.878;2022-11-13T14:02:03;10.20;73.50
68011;DHT22;54794;48.348;7.878;2022-11-13T14:04:45;10.30;73.50
68011;DHT22;54794;48.348;7.878;2022-11-13T14:07:29;10.30;73.50
68011;DHT22;54794;48.348;7.878;2022-11-13T14:10:15;10.30;73.40
68011;DHT22;54794;48.348;7.878;2022-11-13T14:12:45;10.30;73.40
68011;DHT22;54794;48.348;7.878;2022-11-13T14:15:32;10.40;73.60
68011;DHT22;54794;48.348;7.878;2022-11-13T14:18:26;10.30;73.60
68011;DHT22;54794;48.348;7.878;2022-11-13T14:20:56;10.30;73.40
68011;DHT22;54794;48.348;7.878;2022-11-13T14:23:54;10.30;73.50
68011;DHT22;54794;48.348;7.878;2022-11-13T14:26:22;10.30;73.50
68011;DHT22;54794;48.348;7.878;2022-11-13T14:28:54;10.30;73.60
68011;DHT22;54794;48.348;7.878;2022-11-13T14:31:32;10.40;73.70
68011;DHT22;54794;48.348;7.878;2022-11-13T14:34:07;10.40;73.70
68011;DHT22;54794;48.348;7.878;2022-11-13T14:36:37;10.40;73.70
68011;DHT22;54794;48.348;7.878;2022-11-13T14:39:05;10.40;73.60
68011;DHT22;54794;48.348;7.878;2022-11-13T14:41:45;10.40;73.50
68011;DHT22;54794;48.348;7.878;2022-11-13T14:44:28;10.50;73.50
68011;DHT22;54794;48.348;7.878;2022-11-13T14:47:04;10.40;73.40
68011;DHT22;54794;48.348;7.878;2022-11-13T14:49:45;10.40;73.40
68011;DHT22;54794;48.348;7.878;2022-11-13T14:52:24;10.40;73.40
68011;DHT22;54794;48.348;7.878;2022-11-13T14:55:04;10.40;73.40
68011;DHT22;54794;48.348;7.878;2022-11-13T14:57:48;10.40;73.50
68011;DHT22;54794;48.348;7.878;2022-11-13T15:00:17;10.50;73.70
68011;DHT22;54794;48.348;7.878;2022-11-13T15:02:45;10.40;73.70
68011;DHT22;54794;48.348;7.878;2022-11-13T15:05:12;10.50;73.70
68011;DHT22;54794;48.348;7.878;2022-11-13T15:07:40;10.50;73.70
68011;DHT22;54794;48.348;7.878;2022-11-13T15:10:11;10.50;73.70
68011;DHT22;54794;48.348;7.878;2022-11-13T15:12:41;10.60;73.70
68011;DHT22;54794;48.348;7.878;2022-11-13T15:15:14;10.60;73.70
68011;DHT22;54794;48.348;7.878;2022-11-13T15:17:44;10.60;73.50
68011;DHT22;54794;48.348;7.878;2022-11-13T15:20:25;10.60;73.60
68011;DHT22;54794;48.348;7.878;2022-11-13T15:22:54;10.50;73.40
68011;DHT22;54794;48.348;7.878;2022-11-13T15:25:24;10.60;73.40
68011;DHT22;54794;48.348;7.878;2022-11-13T15:27:51;10.50;73.40
68011;DHT22;54794;48.348;7.878;2022-11-13T15:30:19;10.60;73.40
68011;DHT22;54794;48.348;7.878;2022-11-13T15:32:46;10.60;73.40
68011;DHT22;54794;48.348;7.878;2022-11-13T15:35:16;10.50;73.40
68011;DHT22;54794;48.348;7.878;2022-11-13T15:37:44;10.60;73.50
68011;DHT22;54794;48.348;7.878;2022-11-13T15:40:12;10.60;73.50
68011;DHT22;54794;48.348;7.878;2022-11-13T15:42:40;10.50;73.50
68011;DHT22;54794;48.348;7.878;2022-11-13T15:45:13;10.60;73.50
68011;DHT22;54794;48.348;7.878;2022-11-13T15:47:42;10.60;73.50
68011;DHT22;54794;48.348;7.878;2022-11-13T15:50:09;10.60;73.50
68011;DHT22;54794;48.348;7.878;2022-11-13T15:52:45;10.60;73.60
68011;DHT22;54794;48.348;7.878;2022-11-13T15:55:28;10.60;73.50
68011;DHT22;54794;48.348;7.878;2022-11-13T15:57:57;10.60;73.50
68011;DHT22;54794;48.348;7.878;2022-11-13T16:00:28;10.60;73.50
68011;DHT22;54794;48.348;7.878;2022-11-13T16:02:56;10.60;73.50
68011;DHT22;54794;48.348;7.878;2022-11-13T16:05:23;10.60;73.70
68011;DHT22;54794;48.348;7.878;2022-11-13T16:07:52;10.60;73.50
68011;DHT22;54794;48.348;7.878;2022-11-13T16:10:21;10.70;73.50
68011;DHT22;54794;48.348;7.878;2022-11-13T16:12:50;10.70;73.50
68011;DHT22;54794;48.348;7.878;2022-11-13T16:15:18;10.70;73.50
68011;DHT22;54794;48.348;7.878;2022-11-13T16:17:47;10.70;73.50
68011;DHT22;54794;48.348;7.878;2022-11-13T16:20:17;10.70;73.50
68011;DHT22;54794;48.348;7.878;2022-11-13T16:22:45;10.70;73.50
68011;DHT22;54794;48.348;7.878;2022-11-13T16:25:21;10.70;73.50
68011;DHT22;54794;48.348;7.878;2022-11-13T16:27:48;10.70;73.50
68011;DHT22;54794;48.348;7.878;2022-11-13T16:30:18;10.70;74.00
68011;DHT22;54794;48.348;7.878;2022-11-13T16:32:48;10.70;73.50
68011;DHT22;54794;48.348;7.878;2022-11-13T16:35:17;10.70;73.50
68011;DHT22;54794;48.348;7.878;2022-11-13T16:37:45;10.70;73.50
68011;DHT22;54794;48.348;7.878;2022-11-13T16:40:22;10.60;73.40
68011;DHT22;54794;48.348;7.878;2022-11-13T16:42:52;10.70;73.40
68011;DHT22;54794;48.348;7.878;2022-11-13T16:45:20;10.70;73.30
68011;DHT22;54794;48.348;7.878;2022-11-13T16:47:47;10.70;73.30
68011;DHT22;54794;48.348;7.878;2022-11-13T16:50:21;10.70;73.30
68011;DHT22;54794;48.348;7.878;2022-11-13T16:52:52;10.60;73.30
68011;DHT22;54794;48.348;7.878;2022-11-13T16:55:19;10.60;73.30
68011;DHT22;54794;48.348;7.878;2022-11-13T16:57:46;10.60;73.30
68011;DHT22;54794;48.348;7.878;2022-11-13T17:00:14;10.60;73.40
68011;DHT22;54794;48.348;7.878;2022-11-13T17:02:43;10.60;73.40
68011;DHT22;54794;48.348;7.878;2022-11-13T17:05:14;10.60;73.40
68011;DHT22;54794;48.348;7.878;2022-11-13T17:07:42;10.60;73.40
68011;DHT22;54794;48.348;7.878;2022-11-13T17:10:18;10.60;73.40
68011;DHT22;54794;48.348;7.878;2022-11-13T17:13:01;10.60;74.00
68011;DHT22;54794;48.348;7.878;2022-11-13T17:15:28;10.60;73.50
68011;DHT22;54794;48.348;7.878;2022-11-13T17:17:57;10.60;73.50
68011;DHT22;54794;48.348;7.878;2022-11-13T17:20:25;10.70;73.60
68011;DHT22;54794;48.348;7.878;2022-11-13T17:22:52;10.70;73.60